Time;durP1;ratioP1;P1;durP2;ratioP2;P2;SDS_P1;SDS_P2;PMS_P1;PMS_P2;Temp;Humidity;BMP_temperature;BMP_pressure;BME280_temperature;BME280_humidity;BME280_pressure;Samples;Min_cycle;Max_cycle;Signal;HPM_P1;HPM_P2
2023/08/04 00:00:09;;;;;;;19.30;6.33;;;;;;;13.23;100.00;100927.16;5033738;28;20056;-93
2023/08/04 00:02:36;;;;;;;15.52;5.88;;;;;;;13.23;100.00;100930.69;5032719;28;20017;-92
2023/08/04 00:05:01;;;;;;;12.55;5.85;;;;;;;13.17;100.00;100931.75;5015232;28;20029;-93
2023/08/04 00:07:29;;;;;;;17.15;6.35;;;;;;;13.10;100.00;100932.03;5032369;28;20035;-92
2023/08/04 00:09:55;;;;;;;15.73;6.18;;;;;;;13.01;100.00;100930.97;5033337;28;20105;-93
2023/08/04 00:12:20;;;;;;;13.60;5.87;;;;;;;12.97;100.00;100935.28;5034576;28;20063;-93
2023/08/04 00:14:49;;;;;;;16.52;6.50;;;;;;;12.97;100.00;100937.97;5015592;28;20064;-93
2023/08/04 00:17:15;;;;;;;12.53;5.93;;;;;;;12.79;100.00;100924.00;5032591;28;20057;-94
2023/08/04 00:19:41;;;;;;;11.17;5.60;;;;;;;12.72;100.00;100918.09;5033004;28;20334;-93
2023/08/04 00:22:07;;;;;;;14.68;6.10;;;;;;;12.77;100.00;100942.31;5040590;28;20017;-91
2023/08/04 00:24:32;;;;;;;19.80;6.00;;;;;;;12.77;100.00;100945.00;5049895;28;20037;-94
2023/08/04 00:26:57;;;;;;;12.87;5.80;;;;;;;12.71;100.00;100946.06;5032800;28;20037;-93
2023/08/04 00:29:22;;;;;;;18.10;6.37;;;;;;;12.61;100.00;100943.34;5052170;28;20027;-93
2023/08/04 00:31:48;;;;;;;19.17;5.40;;;;;;;12.63;100.00;100941.22;5046152;28;20033;-93
2023/08/04 00:34:13;;;;;;;16.37;5.93;;;;;;;12.56;100.00;100930.72;5032061;28;20034;-93
2023/08/04 00:36:39;;;;;;;15.40;5.37;;;;;;;12.53;100.00;100942.00;5030606;28;20021;-93
2023/08/04 00:39:04;;;;;;;12.20;5.38;;;;;;;12.47;100.00;100948.47;5013487;28;20032;-93
2023/08/04 00:41:30;;;;;;;20.30;6.03;;;;;;;12.44;100.00;100954.38;5032916;28;20026;-93
2023/08/04 00:43:55;;;;;;;16.42;5.70;;;;;;;12.42;100.00;100962.69;5032237;28;20021;-93
2023/08/04 00:46:21;;;;;;;16.40;5.30;;;;;;;12.41;100.00;100961.09;5031923;28;20025;-94
2023/08/04 00:48:47;;;;;;;14.35;5.93;;;;;;;12.36;100.00;100958.41;5031406;28;20171;-92
2023/08/04 00:51:12;;;;;;;16.63;5.77;;;;;;;12.33;100.00;100953.56;5031706;28;20030;-93
2023/08/04 00:53:38;;;;;;;16.10;5.70;;;;;;;12.34;100.00;100964.03;5030895;28;20041;-93
2023/08/04 00:56:04;;;;;;;16.83;5.50;;;;;;;12.31;100.00;100964.59;5031014;28;20795;-95
2023/08/04 00:58:32;;;;;;;19.25;6.10;;;;;;;12.31;100.00;100966.44;5031178;28;20153;-93
2023/08/04 01:00:58;;;;;;;18.25;6.03;;;;;;;12.28;100.00;100965.09;5032224;28;20030;-94
2023/08/04 01:03:24;;;;;;;17.33;6.30;;;;;;;12.26;100.00;100959.97;5032123;28;20033;-93
2023/08/04 01:06:07;;;;;;;13.60;5.70;;;;;;;12.32;100.00;100973.44;5031124;28;20044;-93
2023/08/04 01:08:34;;;;;;;19.38;6.13;;;;;;;12.27;100.00;100975.03;5017966;28;20056;-93
2023/08/04 01:11:09;;;;;;;13.40;5.53;;;;;;;12.19;100.00;100969.38;5003409;28;20073;-94
2023/08/04 01:13:38;;;;;;;12.23;5.65;;;;;;;12.18;100.00;100984.69;5017268;28;20385;-93
2023/08/04 01:16:05;;;;;;;14.35;5.28;;;;;;;12.14;100.00;100975.53;5030644;28;20052;-93
2023/08/04 01:18:30;;;;;;;11.07;5.85;;;;;;;12.14;100.00;100972.84;5032115;28;20025;-93
2023/08/04 01:21:01;;;;;;;18.30;5.80;;;;;;;12.13;100.00;100983.88;5013816;28;20493;-93
2023/08/04 01:23:26;;;;;;;16.55;6.38;;;;;;;12.13;100.00;100987.34;5031685;28;20388;-92
2023/08/04 01:25:52;;;;;;;19.37;6.10;;;;;;;12.04;100.00;100979.00;5028237;28;20038;-93
2023/08/04 01:28:20;;;;;;;16.80;5.70;;;;;;;12.13;100.00;100990.03;5031815;28;20017;-93
2023/08/04 01:30:48;;;;;;;15.40;6.07;;;;;;;12.14;100.00;100994.34;5030738;28;20022;-93
2023/08/04 01:33:14;;;;;;;17.60;6.10;;;;;;;12.13;100.00;100976.63;5032819;28;20025;-93
2023/08/04 01:35:42;;;;;;;22.20;6.45;;;;;;;12.19;100.00;100983.63;5030032;28;20034;-93
2023/08/04 01:38:08;;;;;;;12.82;5.90;;;;;;;12.17;100.00;100987.63;5031143;28;20049;-93
2023/08/04 01:40:33;;;;;;;19.53;6.30;;;;;;;12.19;100.00;100980.94;5031843;28;20040;-93
2023/08/04 01:42:58;;;;;;;21.90;6.72;;;;;;;12.26;100.00;100994.91;5051844;28;20047;-92
2023/08/04 01:45:24;;;;;;;19.87;6.60;;;;;;;12.34;100.00;101000.84;5035111;28;20045;-93
2023/08/04 01:47:50;;;;;;;18.13;6.37;;;;;;;12.34;100.00;101003.53;5003827;28;20081;-93
2023/08/04 01:50:15;;;;;;;17.40;7.13;;;;;;;12.35;100.00;101000.56;5083322;22;20046;-93
2023/08/04 01:52:41;;;;;;;15.20;6.40;;;;;;;12.34;100.00;100998.16;4995006;28;20117;-95
2023/08/04 01:55:06;;;;;;;17.97;6.63;;;;;;;12.37;100.00;100997.63;4992085;28;20042;-93
2023/08/04 01:57:32;;;;;;;17.23;6.77;;;;;;;12.40;100.00;100995.22;4994308;28;20032;-93
2023/08/04 01:59:57;;;;;;;14.23;6.30;;;;;;;12.45;100.00;100999.78;5007719;28;20031;-93
2023/08/04 02:02:23;;;;;;;15.37;6.73;;;;;;;12.48;100.00;101004.63;5010934;28;20025;-93
2023/08/04 02:04:48;;;;;;;21.90;7.23;;;;;;;12.48;100.00;100993.88;5023492;28;20034;-93
2023/08/04 02:07:14;;;;;;;17.98;6.93;;;;;;;12.47;100.00;100997.66;5020143;28;20026;-93
2023/08/04 02:09:39;;;;;;;20.67;7.47;;;;;;;12.54;100.00;101003.59;5011976;28;20077;-92
2023/08/04 02:12:05;;;;;;;21.20;7.13;;;;;;;12.53;100.00;101010.03;5012214;28;20022;-93
2023/08/04 02:14:30;;;;;;;15.88;6.70;;;;;;;12.53;100.00;100999.28;5009765;28;20038;-93
2023/08/04 02:16:56;;;;;;;14.97;6.60;;;;;;;12.50;100.00;100999.00;5012809;28;20037;-94
2023/08/04 02:19:22;;;;;;;14.20;6.77;;;;;;;12.53;100.00;101011.91;5010593;28;20034;-95
2023/08/04 02:21:48;;;;;;;17.02;6.68;;;;;;;12.45;100.00;101004.38;4999022;28;20026;-91
2023/08/04 02:24:13;;;;;;;21.08;7.07;;;;;;;12.36;100.00;100996.81;5016318;28;20061;-91
2023/08/04 02:26:39;;;;;;;17.60;6.37;;;;;;;12.34;100.00;101006.22;5015280;28;20387;-91
2023/08/04 02:29:04;;;;;;;15.25;6.25;;;;;;;12.34;100.00;101016.97;5016153;28;20026;-90
2023/08/04 02:31:32;;;;;;;17.83;6.67;;;;;;;12.26;100.00;101016.41;5011684;28;20042;-90
2023/08/04 02:33:58;;;;;;;16.70;5.88;;;;;;;12.24;100.00;101015.84;5009814;28;20061;-90
2023/08/04 02:36:23;;;;;;;16.63;6.13;;;;;;;12.14;100.00;101013.16;5016900;28;20141;-90
2023/08/04 02:38:49;;;;;;;15.93;6.23;;;;;;;12.08;100.00;101011.50;5016902;28;20277;-90
2023/08/04 02:41:14;;;;;;;14.77;6.43;;;;;;;12.10;100.00;101012.06;5017437;28;20029;-90
2023/08/04 02:43:40;;;;;;;17.10;6.60;;;;;;;12.11;100.00;101014.50;5010433;28;20034;-91
2023/08/04 02:46:05;;;;;;;18.65;6.70;;;;;;;12.12;100.00;101017.97;5010715;28;20033;-89
2023/08/04 02:48:31;;;;;;;14.93;6.20;;;;;;;12.04;100.00;101016.59;5014205;28;20032;-90
2023/08/04 02:51:08;;;;;;;16.73;6.63;;;;;;;11.96;100.00;101017.88;5029968;28;20040;-91
2023/08/04 02:53:35;;;;;;;16.58;6.35;;;;;;;12.04;100.00;101023.88;4991708;28;20114;-91
2023/08/04 02:56:11;;;;;;;18.05;6.55;;;;;;;12.07;100.00;101023.31;5003390;28;20057;-90
2023/08/04 02:58:36;;;;;;;19.15;7.03;;;;;;;12.07;100.00;101016.09;5023569;28;20021;-90
2023/08/04 03:01:02;;;;;;;16.63;6.80;;;;;;;12.13;100.00;101014.22;5000142;28;20033;-90
2023/08/04 03:03:28;;;;;;;18.35;6.80;;;;;;;12.31;100.00;101025.56;5036314;28;20026;-90
2023/08/04 03:05:57;;;;;;;16.03;6.27;;;;;;;12.33;100.00;101023.41;5014672;28;20068;-90
2023/08/04 03:08:22;;;;;;;19.00;6.75;;;;;;;12.41;100.00;101029.09;5010739;28;20022;-90
2023/08/04 03:10:48;;;;;;;18.80;6.60;;;;;;;12.39;100.00;101025.06;5031024;28;20038;-91
2023/08/04 03:13:13;;;;;;;17.23;6.93;;;;;;;12.48;100.00;101039.56;5034097;28;20651;-90
2023/08/04 03:15:39;;;;;;;16.77;6.87;;;;;;;12.52;100.00;101031.78;5034054;28;20461;-90
2023/08/04 03:18:05;;;;;;;12.25;6.88;;;;;;;12.60;100.00;101027.78;5033725;28;20037;-90
2023/08/04 03:20:36;;;;;;;22.77;7.27;;;;;;;12.62;100.00;101036.38;5032621;28;20111;-91
2023/08/04 03:23:02;;;;;;;20.15;7.57;;;;;;;12.64;100.00;101028.84;5010874;28;20034;-90
2023/08/04 03:25:28;;;;;;;16.27;6.83;;;;;;;12.66;100.00;101029.38;4998950;28;20050;-95
2023/08/04 03:27:54;;;;;;;16.27;6.72;;;;;;;12.67;100.00;101034.53;4992587;28;20287;-92
2023/08/04 03:30:19;;;;;;;15.30;6.83;;;;;;;12.61;100.00;101030.19;4994907;28;20046;-93
2023/08/04 03:32:44;;;;;;;16.67;6.30;;;;;;;12.70;100.00;101043.91;4993627;28;20026;-90
2023/08/04 03:35:10;;;;;;;13.65;6.47;;;;;;;12.72;100.00;101047.16;4994205;28;20056;-90
2023/08/04 03:37:36;;;;;;;18.37;6.67;;;;;;;12.65;100.00;101028.59;4998288;28;20025;-90
2023/08/04 03:40:02;;;;;;;15.43;6.70;;;;;;;12.68;100.00;101036.13;5013455;28;20527;-90
2023/08/04 03:42:27;;;;;;;18.57;6.20;;;;;;;12.69;100.00;101036.94;5012611;28;20026;-90
2023/08/04 03:44:52;;;;;;;17.97;6.33;;;;;;;12.71;100.00;101042.84;5014237;28;20034;-96
2023/08/04 03:55:06;;;;;;;15.57;6.50;;;;;;;12.83;100.00;101045.28;5906539;22;20312;-94
2023/08/04 03:57:31;;;;;;;16.92;6.68;;;;;;;12.67;100.00;101018.38;5050418;28;20047;-96
2023/08/04 03:59:58;;;;;;;13.27;6.15;;;;;;;12.64;100.00;101018.09;5048291;28;20028;-95
2023/08/04 04:02:24;;;;;;;12.27;6.18;;;;;;;12.62;100.00;101018.38;5033675;28;20025;-96
2023/08/04 04:05:27;;;;;;;15.10;5.93;;;;;;;12.88;100.00;101054.16;5054275;28;20040;-96
2023/08/04 04:11:23;;;;;;;19.80;5.45;;;;;;;12.79;100.00;101033.44;5034590;28;20040;-94
2023/08/04 04:13:48;;;;;;;16.90;6.43;;;;;;;12.73;100.00;101038.81;5052199;28;20033;-92
2023/08/04 04:16:14;;;;;;;14.00;6.10;;;;;;;12.76;100.00;101039.34;5050819;28;20040;-93
2023/08/04 04:18:39;;;;;;;13.70;6.00;;;;;;;12.85;100.00;101057.38;5051855;28;20025;-93
2023/08/04 04:21:04;;;;;;;19.13;6.80;;;;;;;12.78;100.00;101046.06;5055794;28;20025;-91
2023/08/04 04:23:30;;;;;;;11.07;5.97;;;;;;;12.79;100.00;101049.59;5054616;28;20013;-93
2023/08/04 04:26:08;;;;;;;12.77;6.43;;;;;;;12.78;100.00;101051.44;5051407;28;20065;-92
2023/08/04 04:28:34;;;;;;;15.23;6.50;;;;;;;12.88;100.00;101066.78;5034622;28;20030;-93
2023/08/04 04:31:03;;;;;;;13.50;6.30;;;;;;;12.78;100.00;101051.44;5049951;28;20079;-93
2023/08/04 04:33:28;;;;;;;14.00;6.13;;;;;;;12.92;100.00;101069.78;5046744;28;20029;-93
2023/08/04 04:35:54;;;;;;;17.50;6.20;;;;;;;12.87;100.00;101066.00;5034123;28;20045;-92
2023/08/04 04:38:19;;;;;;;17.00;6.47;;;;;;;12.94;100.00;101070.31;5033509;28;20457;-94
2023/08/04 04:40:54;;;;;;;17.00;6.30;;;;;;;12.93;100.00;101071.38;5027537;28;20048;-93
2023/08/04 04:43:20;;;;;;;16.17;6.97;;;;;;;12.84;100.00;101063.84;5024761;28;20036;-93
2023/08/04 04:45:53;;;;;;;13.40;6.27;;;;;;;12.84;100.00;101076.50;5033855;28;20021;-93
2023/08/04 04:48:19;;;;;;;18.10;6.43;;;;;;;12.84;100.00;101081.88;5039602;28;20025;-93
2023/08/04 04:50:45;;;;;;;18.83;7.03;;;;;;;12.85;100.00;101089.66;5033524;28;20063;-93
2023/08/04 04:53:11;;;;;;;15.80;7.53;;;;;;;12.87;100.00;101089.41;5057008;28;20021;-92
2023/08/04 04:55:37;;;;;;;15.35;6.85;;;;;;;12.86;100.00;101079.72;5040954;28;20018;-92
2023/08/04 04:58:02;;;;;;;17.03;7.37;;;;;;;12.96;100.00;101089.69;5052806;28;20036;-95
2023/08/04 05:00:49;;;;;;;16.07;7.10;;;;;;;12.99;100.00;101100.72;5054792;28;20093;-95
2023/08/04 05:03:14;;;;;;;13.25;6.55;;;;;;;12.99;100.00;101100.72;5057012;28;20056;-90
2023/08/04 05:05:41;;;;;;;14.07;6.93;;;;;;;13.00;100.00;101102.31;5039777;28;20041;-92
2023/08/04 05:08:07;;;;;;;15.10;6.57;;;;;;;13.00;100.00;101102.31;5028403;28;20021;-91
2023/08/04 05:10:32;;;;;;;13.57;6.70;;;;;;;13.00;100.00;101098.81;5026749;28;20029;-93
2023/08/04 05:12:57;;;;;;;17.20;7.07;;;;;;;13.15;100.00;101103.41;5034566;28;20534;-96
2023/08/04 05:15:23;;;;;;;18.33;6.67;;;;;;;13.24;100.00;101106.38;5035585;28;20030;-94
2023/08/04 05:17:48;;;;;;;12.77;7.33;;;;;;;13.31;100.00;101090.78;5032067;28;20089;-95
2023/08/04 05:20:14;;;;;;;18.70;7.43;;;;;;;13.36;100.00;101096.13;5032142;28;20501;-94
2023/08/04 05:22:40;;;;;;;25.58;8.60;;;;;;;13.48;100.00;101120.94;5032291;28;20488;-93
2023/08/04 05:25:07;;;;;;;16.50;6.72;;;;;;;13.50;100.00;101122.56;5019629;28;20080;-95
2023/08/04 05:27:32;;;;;;;14.60;7.13;;;;;;;13.53;100.00;101120.13;5017303;28;20031;-95
2023/08/04 05:29:58;;;;;;;16.77;7.50;;;;;;;13.78;100.00;101127.38;5016186;28;20034;-95
2023/08/04 05:32:23;;;;;;;14.77;7.63;;;;;;;13.96;100.00;101127.88;5019396;28;20040;-92
2023/08/04 05:34:48;;;;;;;19.73;7.13;;;;;;;14.08;100.00;101122.97;5034739;28;20332;-95
2023/08/04 05:37:13;;;;;;;16.47;7.23;;;;;;;14.09;100.00;101118.41;5031895;28;20021;-94
2023/08/04 05:39:39;;;;;;;14.57;6.90;;;;;;;14.33;100.00;101132.06;5032974;28;20030;-93
2023/08/04 05:42:04;;;;;;;20.00;7.50;;;;;;;14.48;100.00;101125.00;5033001;28;20037;-96
2023/08/04 05:44:30;;;;;;;15.23;7.63;;;;;;;14.67;100.00;101128.66;5042937;28;20504;-93
2023/08/04 05:46:55;;;;;;;16.77;7.40;;;;;;;14.93;100.00;101133.13;5010415;28;20120;-95
2023/08/04 05:49:21;;;;;;;20.13;7.07;;;;;;;15.31;100.00;101144.22;5029728;28;20060;-95
2023/08/04 05:51:46;;;;;;;16.55;7.55;;;;;;;15.86;100.00;101132.41;5050506;28;20071;-95
2023/08/04 05:54:12;;;;;;;14.30;7.47;;;;;;;16.43;100.00;101143.38;5033882;28;20026;-95
2023/08/04 05:56:37;;;;;;;14.47;6.70;;;;;;;16.59;100.00;101148.63;5030084;28;20029;-96
2023/08/04 05:59:02;;;;;;;10.70;5.80;;;;;;;16.61;100.00;101138.31;5021550;28;20057;-96
2023/08/04 06:01:28;;;;;;;16.60;6.88;;;;;;;16.68;100.00;101151.47;5016918;28;20052;-95
2023/08/04 06:03:53;;;;;;;14.03;6.20;;;;;;;16.58;100.00;101160.53;5038279;28;20079;-96
2023/08/04 06:06:20;;;;;;;12.40;6.30;;;;;;;16.48;100.00;101156.84;5038366;28;20108;-95
2023/08/04 06:08:45;;;;;;;10.85;6.13;;;;;;;16.37;100.00;101147.25;5046435;28;20071;-95
2023/08/04 06:11:11;;;;;;;16.80;5.82;;;;;;;16.40;100.00;101164.78;5048717;28;20029;-96
2023/08/04 06:13:36;;;;;;;12.90;6.30;;;;;;;16.39;100.00;101164.00;5040555;28;20029;-95
2023/08/04 06:16:02;;;;;;;14.93;6.23;;;;;;;16.50;100.00;101172.78;5027154;28;20026;-94
2023/08/04 06:18:27;;;;;;;14.18;6.13;;;;;;;16.42;100.00;101171.53;5046506;28;20021;-95
2023/08/04 06:20:53;;;;;;;14.17;6.57;;;;;;;16.33;100.00;101178.66;5040944;28;20049;-96
2023/08/04 06:23:18;;;;;;;13.37;6.43;;;;;;;16.18;100.00;101176.94;5040807;28;20389;-96
2023/08/04 06:25:43;;;;;;;20.47;7.40;;;;;;;16.10;100.00;101177.56;5044967;28;20028;-96
2023/08/04 06:28:09;;;;;;;16.70;6.63;;;;;;;16.05;100.00;101168.41;5044483;28;20308;-96
2023/08/04 06:30:34;;;;;;;18.63;6.73;;;;;;;16.18;100.00;101182.34;5032902;28;20029;-96
2023/08/04 06:32:59;;;;;;;19.43;7.10;;;;;;;16.27;100.00;101190.63;5022365;28;20036;-95
2023/08/04 06:35:25;;;;;;;13.73;6.50;;;;;;;16.37;100.00;101197.81;5023658;28;20045;-96
2023/08/04 06:37:51;;;;;;;13.47;6.87;;;;;;;16.43;100.00;101177.75;5030051;28;20061;-95
2023/08/04 06:40:17;;;;;;;14.40;6.80;;;;;;;16.72;100.00;101193.88;5039760;28;20108;-95
2023/08/04 06:42:42;;;;;;;13.10;6.90;;;;;;;16.82;100.00;101198.34;5039784;28;20053;-96
2023/08/04 06:45:08;;;;;;;18.33;7.40;;;;;;;16.94;100.00;101208.75;5044271;28;20373;-96
2023/08/04 06:47:33;;;;;;;14.73;6.60;;;;;;;16.99;100.00;101199.78;5036608;28;20087;-95
2023/08/04 06:49:59;;;;;;;16.80;6.80;;;;;;;17.26;100.00;101202.63;5045132;28;20108;-96
2023/08/04 06:52:25;;;;;;;21.00;6.93;;;;;;;17.50;100.00;101192.81;5043015;28;20464;-94
2023/08/04 06:54:51;;;;;;;13.82;7.25;;;;;;;17.91;100.00;101207.56;5031613;28;20488;-94
2023/08/04 06:57:16;;;;;;;11.25;6.63;;;;;;;18.23;100.00;101212.16;5017392;28;20033;-88
2023/08/04 06:59:41;;;;;;;10.87;6.77;;;;;;;18.61;100.00;101203.81;5031492;28;20400;-90
2023/08/04 07:02:07;;;;;;;13.87;6.77;;;;;;;19.18;100.00;101221.59;5034077;28;20029;-86
2023/08/04 07:04:32;;;;;;;13.00;6.30;;;;;;;19.50;100.00;101225.22;5035959;28;20026;-87
2023/08/04 07:06:57;;;;;;;13.87;6.20;;;;;;;19.69;100.00;101221.50;5035920;28;20080;-87
2023/08/04 07:09:23;;;;;;;12.07;5.97;;;;;;;19.73;100.00;101218.97;5029126;28;20029;-87
2023/08/04 07:11:48;;;;;;;12.30;5.90;;;;;;;19.57;100.00;101222.06;5022637;28;20087;-86
2023/08/04 07:14:14;;;;;;;10.47;5.00;;;;;;;19.53;100.00;101221.06;5030481;28;20045;-87
2023/08/04 07:16:39;;;;;;;9.80;4.10;;;;;;;19.63;100.00;101228.97;5028863;28;20029;-87
2023/08/04 07:19:04;;;;;;;6.37;3.77;;;;;;;19.60;100.00;101231.50;5031944;28;20539;-87
2023/08/04 07:21:30;;;;;;;6.47;3.87;;;;;;;19.54;100.00;101235.50;5031098;28;20026;-87
2023/08/04 07:23:55;;;;;;;11.17;4.23;;;;;;;19.36;100.00;101238.88;5030339;28;20428;-88
2023/08/04 07:26:20;;;;;;;7.90;4.53;;;;;;;19.36;100.00;101235.31;5023705;28;20044;-88
2023/08/04 07:31:47;;;;;;;9.73;3.25;;;;;;;19.31;100.00;101211.00;5285980;22;20633;-89
2023/08/04 07:37:34;;;;;;;9.57;2.63;;;;;;;19.73;100.00;101203.44;5011333;28;20307;-90
2023/08/04 07:39:59;;;;;;;7.82;2.70;;;;;;;20.09;100.00;101237.91;5013359;28;20060;-90
2023/08/04 07:42:25;;;;;;;8.60;3.03;;;;;;;20.12;100.00;101247.38;4995733;28;20092;-90
2023/08/04 07:44:50;;;;;;;7.10;2.93;;;;;;;19.96;100.00;101227.91;4996132;28;20475;-89
2023/08/04 07:47:16;;;;;;;6.57;2.72;;;;;;;20.21;100.00;101248.19;5011836;28;20040;-90
2023/08/04 07:49:41;;;;;;;6.23;2.40;;;;;;;20.28;100.00;101242.31;5012550;28;20040;-89
2023/08/04 07:52:07;;;;;;;3.53;2.33;;;;;;;20.39;100.00;101246.38;5013143;28;20022;-90
2023/08/04 07:54:33;;;;;;;5.53;2.60;;;;;;;20.17;100.00;101246.44;5013864;28;20080;-92
2023/08/04 07:56:59;;;;;;;6.88;2.42;;;;;;;19.98;100.00;101250.16;4995750;28;20033;-91
2023/08/04 07:59:25;;;;;;;6.00;2.45;;;;;;;20.07;100.00;101256.47;5014905;28;20034;-92
2023/08/04 08:01:50;;;;;;;6.23;2.70;;;;;;;20.16;100.00;101247.53;5015726;28;20528;-92
2023/08/04 08:04:15;;;;;;;4.87;2.37;;;;;;;20.47;100.00;101263.03;5010508;28;20034;-91
2023/08/04 08:06:41;;;;;;;6.00;2.03;;;;;;;20.54;100.00;101266.88;5014903;28;20392;-90
2023/08/04 08:09:07;;;;;;;4.30;2.27;;;;;;;20.73;100.00;101268.56;5015424;28;20025;-90
2023/08/04 08:11:35;;;;;;;6.03;2.40;;;;;;;20.89;98.96;101263.50;5014086;28;20022;-90
2023/08/04 08:14:01;;;;;;;4.95;2.55;;;;;;;21.05;97.10;101272.03;5016339;28;20084;-91
2023/08/04 08:16:26;;;;;;;4.83;2.30;;;;;;;20.77;95.63;101261.38;5013116;28;20030;-89
2023/08/04 08:18:51;;;;;;;8.10;2.30;;;;;;;20.78;98.82;101252.09;5013165;28;20026;-89
2023/08/04 08:21:17;;;;;;;4.75;2.17;;;;;;;20.96;100.00;101258.41;5011430;28;20371;-88
2023/08/04 08:23:42;;;;;;;9.40;2.73;;;;;;;20.93;98.30;101264.47;5012433;28;20052;-88
2023/08/04 08:26:07;;;;;;;6.03;2.50;;;;;;;21.02;99.62;101259.81;5016693;28;20025;-86
2023/08/04 08:28:33;;;;;;;6.30;2.60;;;;;;;21.22;96.82;101275.88;5014847;28;20566;-87
2023/08/04 08:30:58;;;;;;;5.03;2.57;;;;;;;21.32;90.62;101273.66;5016771;28;20044;-88
2023/08/04 08:33:23;;;;;;;5.43;2.13;;;;;;;21.52;92.90;101285.03;5019459;28;21906;-87
2023/08/04 08:35:49;;;;;;;4.00;2.20;;;;;;;21.69;93.39;101291.63;5011252;28;20153;-88
2023/08/04 08:38:14;;;;;;;3.90;1.93;;;;;;;21.76;88.57;101279.09;5012710;28;20022;-87
2023/08/04 08:40:39;;;;;;;2.07;1.67;;;;;;;22.04;86.01;101294.28;5011066;28;20101;-88
2023/08/04 08:43:05;;;;;;;2.70;1.67;;;;;;;22.40;84.97;101282.13;5011864;28;20033;-86
2023/08/04 08:45:33;;;;;;;2.55;1.80;;;;;;;22.66;82.26;101276.59;5010367;28;20033;-86
2023/08/04 08:47:58;;;;;;;2.40;1.70;;;;;;;22.95;80.45;101290.56;5011676;28;20057;-86
2023/08/04 08:50:26;;;;;;;2.23;1.77;;;;;;;22.88;75.95;101307.47;5009785;28;20326;-87
2023/08/04 08:52:58;;;;;;;4.75;2.00;;;;;;;22.77;80.67;101290.66;5011326;28;20025;-86
2023/08/04 08:55:27;;;;;;;4.27;1.90;;;;;;;22.78;81.15;101300.47;5010514;28;20088;-86
2023/08/04 08:57:54;;;;;;;2.93;1.77;;;;;;;22.56;78.09;101300.72;5010895;28;20335;-87
2023/08/04 09:00:22;;;;;;;3.95;2.00;;;;;;;22.33;80.75;101293.56;5011046;28;20057;-86
2023/08/04 09:02:47;;;;;;;3.50;2.15;;;;;;;22.40;82.33;101301.25;5009350;28;20041;-86
2023/08/04 09:05:13;;;;;;;4.43;2.22;;;;;;;22.42;83.07;101304.50;4993643;28;20026;-86
2023/08/04 09:07:38;;;;;;;2.70;1.70;;;;;;;22.79;84.66;101313.00;5010096;28;20061;-86
2023/08/04 09:10:06;;;;;;;2.43;1.93;;;;;;;22.76;78.60;101308.19;5011168;28;20389;-86
2023/08/04 09:12:31;;;;;;;4.05;2.00;;;;;;;22.56;78.90;101306.97;5011734;28;20541;-86
2023/08/04 09:14:57;;;;;;;5.70;2.30;;;;;;;22.38;81.72;101309.75;5010598;28;20105;-87
2023/08/04 09:17:36;;;;;;;3.90;1.80;;;;;;;22.35;86.53;101313.16;5011522;28;20429;-87
2023/08/04 09:20:07;;;;;;;2.42;1.65;;;;;;;22.06;80.59;101324.78;5011481;28;20030;-87
2023/08/04 09:22:37;;;;;;;2.40;1.60;;;;;;;22.00;82.62;101315.16;5017706;28;20033;-87
2023/08/04 09:25:04;;;;;;;3.00;1.40;;;;;;;22.16;83.58;101321.69;5014429;28;20386;-87
2023/08/04 09:27:31;;;;;;;5.30;1.80;;;;;;;22.18;81.63;101322.19;5023215;28;20026;-87
2023/08/04 09:30:01;;;;;;;2.75;1.83;;;;;;;22.47;83.65;101319.88;5017294;28;20033;-86
2023/08/04 09:32:27;;;;;;;3.47;1.88;;;;;;;22.96;80.56;101312.06;4997686;28;20026;-87
2023/08/04 09:35:04;;;;;;;3.63;1.85;;;;;;;23.36;83.25;101323.75;5015885;28;20038;-87
2023/08/04 09:37:33;;;;;;;3.97;1.80;;;;;;;23.59;76.20;101316.00;5015551;28;20172;-88
2023/08/04 09:40:04;;;;;;;3.80;1.90;;;;;;;23.83;75.52;101325.44;5015082;28;20030;-87
2023/08/04 09:42:31;;;;;;;2.53;1.73;;;;;;;24.05;73.99;101316.06;5003810;28;20061;-88
2023/08/04 09:44:56;;;;;;;4.25;1.92;;;;;;;24.12;73.98;101321.78;5019796;28;20108;-88
2023/08/04 09:47:26;;;;;;;3.73;1.80;;;;;;;24.06;75.26;101316.88;4996609;28;20525;-88
2023/08/04 09:49:52;;;;;;;3.42;1.63;;;;;;;24.38;72.35;101317.16;5013080;28;20046;-88
2023/08/04 09:52:22;;;;;;;3.22;1.80;;;;;;;24.73;73.53;101320.28;5000148;28;20498;-88
2023/08/04 09:54:50;;;;;;;3.35;1.80;;;;;;;24.84;69.93;101322.56;5021082;28;20044;-86
2023/08/04 09:57:15;;;;;;;5.68;2.00;;;;;;;24.93;67.71;101313.06;5004749;28;20026;-88
2023/08/04 09:59:41;;;;;;;3.80;1.90;;;;;;;25.04;64.65;101309.84;5022833;28;20340;-87
2023/08/04 10:02:08;;;;;;;3.58;1.67;;;;;;;24.92;65.65;101316.16;5026443;28;20026;-87
2023/08/04 10:04:34;;;;;;;3.20;1.83;;;;;;;24.76;66.30;101324.28;5020091;28;20129;-88
2023/08/04 10:06:59;;;;;;;3.20;2.00;;;;;;;24.40;67.01;101325.84;5021005;28;20410;-88
2023/08/04 10:09:26;;;;;;;2.63;1.73;;;;;;;23.78;70.51;101320.16;5025473;28;20037;-88
2023/08/04 10:11:52;;;;;;;4.03;1.43;;;;;;;23.11;70.20;101321.63;5013435;28;20046;-89
2023/08/04 10:14:18;;;;;;;4.17;1.50;;;;;;;22.74;72.37;101324.09;5013341;28;20297;-88
2023/08/04 10:16:45;;;;;;;3.33;1.40;;;;;;;22.28;74.57;101320.22;4988494;28;20036;-89
2023/08/04 10:19:13;;;;;;;3.47;1.60;;;;;;;22.02;75.21;101341.00;5023302;28;20068;-89
2023/08/04 10:21:40;;;;;;;4.25;1.20;;;;;;;21.86;80.97;101324.34;5020616;28;20034;-88
2023/08/04 10:24:09;;;;;;;4.65;1.45;;;;;;;21.24;92.77;101323.50;5025451;28;20167;-87
2023/08/04 10:26:47;;;;;;;3.93;1.60;;;;;;;20.75;95.58;101318.06;5005996;28;20038;-86
2023/08/04 10:29:12;;;;;;;3.87;1.60;;;;;;;20.31;95.61;101306.19;5009056;28;20320;-88
2023/08/04 10:31:45;;;;;;;2.55;1.52;;;;;;;20.48;100.00;101319.88;5026876;28;20578;-88
2023/08/04 10:34:23;;;;;;;3.55;1.75;;;;;;;20.76;100.00;101321.63;5028969;28;20126;-88
2023/08/04 10:37:09;;;;;;;4.45;1.80;;;;;;;21.19;99.06;101315.47;5031061;28;20049;-88
2023/08/04 10:39:51;;;;;;;6.40;1.80;;;;;;;21.72;92.28;101321.78;5029911;28;20030;-88
2023/08/04 10:42:24;;;;;;;5.50;1.70;;;;;;;22.50;87.33;101320.00;5000582;28;20305;-89
2023/08/04 10:45:03;;;;;;;3.60;1.52;;;;;;;23.32;83.64;101329.09;5015562;28;20103;-88
2023/08/04 10:47:32;;;;;;;4.53;1.80;;;;;;;24.09;80.05;101332.63;5010518;28;20025;-87
2023/08/04 10:49:59;;;;;;;3.38;1.73;;;;;;;24.52;71.27;101331.31;5014944;28;20033;-88
2023/08/04 10:52:26;;;;;;;3.40;1.90;;;;;;;25.03;73.52;101328.25;5016233;28;20108;-88
2023/08/04 10:54:52;;;;;;;3.43;2.00;;;;;;;25.31;67.02;101334.94;5023671;28;20061;-88
2023/08/04 10:57:22;;;;;;;5.00;1.80;;;;;;;24.85;66.48;101344.13;5021389;28;20324;-88
2023/08/04 10:59:48;;;;;;;5.65;1.98;;;;;;;24.07;67.31;101340.38;5026057;28;20010;-88
2023/08/04 11:02:22;;;;;;;2.95;2.03;;;;;;;23.52;68.51;101343.88;5024622;28;20030;-88
2023/08/04 11:04:51;;;;;;;2.28;1.80;;;;;;;23.04;70.27;101340.47;5015116;28;20030;-88
2023/08/04 11:07:19;;;;;;;6.30;2.10;;;;;;;22.71;75.58;101343.06;5026291;28;20026;-89
2023/08/04 11:09:45;;;;;;;4.00;1.90;;;;;;;22.59;76.12;101311.00;5031932;28;20030;-92
2023/08/04 11:12:11;;;;;;;4.67;2.10;;;;;;;22.63;74.05;101326.41;5016726;28;20343;-90
2023/08/04 11:14:37;;;;;;;5.43;1.70;;;;;;;22.62;74.26;101341.16;5016757;28;20038;-87
2023/08/04 11:17:16;;;;;;;6.95;2.47;;;;;;;22.64;78.11;101321.75;4998941;28;20105;-91
2023/08/04 11:19:48;;;;;;;4.32;2.10;;;;;;;22.98;75.98;101347.28;5014206;28;20033;-90
2023/08/04 11:22:26;;;;;;;3.08;1.83;;;;;;;23.04;75.89;101329.53;5011814;28;20428;-90
2023/08/04 11:24:52;;;;;;;6.72;2.15;;;;;;;23.01;72.63;101349.31;5034996;28;20026;-90
2023/08/04 11:27:25;;;;;;;5.40;2.00;;;;;;;22.86;70.48;101349.91;5033691;28;20028;-92
2023/08/04 11:29:54;;;;;;;5.35;1.92;;;;;;;22.82;73.72;101336.88;5018262;28;20034;-90